CheckWX is a tool to help pilots better visualize weather data.  It is not intended as a substitute for an official pre-flight weather briefing.

02:06:47 UTC

LFKC TAF
Calvi-Sainte-Catherine Airport
Calvi/Sainte-Catherine, France
TAF LFKC 181400Z 1815/1915 25008KT CAVOK TX14/1912Z TN06/1905Z BECMG 1819/1820 18005KT BECMG 1904/1906 FEW020 BKN035 PROB40 TEMPO 1906/1910 -RA BECMG 1907/1909 02013KT TEMPO 1911/1915 02017G27KT

Mar-18@
15:00 UTC

Mar-18 @ 15:00 UTC

Mar-18@
19:00 UTC

Mar-18 @ 19:00 UTC

TAF LFKC 181400Z 1815/1915 25008KT CAVOK TX14/1912Z TN06/1905Z

Expired

Wind
  • 250° at 8 KTS
Cloud Levels
  • No significant clouds

Mar-18@
19:00 UTC

Mar-18 @ 19:00 UTC

Mar-19@
04:00 UTC

Mar-19 @ 04:00 UTC

BECMG 1819/1820 18005KT

Becoming

Becoming Conditions expected by Mon, Mar 18, 2019 @ 20:00 UTC

Wind
  • 180° at 5 KTS
Cloud Levels
  • No significant clouds

Mar-19@
04:00 UTC

Mar-19 @ 04:00 UTC

Mar-19@
07:00 UTC

Mar-19 @ 07:00 UTC

BECMG 1904/1906 FEW020 BKN035

Becoming

Becoming Conditions expected by Tue, Mar 19, 2019 @ 06:00 UTC

Wind
  • 180° at 5 KTS
Cloud Levels
  • Few at 2,000' AGL
  • Broken at 3,500' AGL

Mar-19@
06:00 UTC

Mar-19 @ 06:00 UTC

Mar-19@
10:00 UTC

Mar-19 @ 10:00 UTC

PROB40 TEMPO 1906/1910 -RA

Temporary - 40% Likelihood

Temporary - 40% Likelihood during this time.

Conditions
Light Rain

Mar-19@
07:00 UTC

Mar-19 @ 07:00 UTC

Mar-19@
15:00 UTC

Mar-19 @ 15:00 UTC

BECMG 1907/1909 02013KT

Becoming

Becoming Conditions expected by Tue, Mar 19, 2019 @ 09:00 UTC

Wind
  • 020° at 13 KTS
Cloud Levels
  • Few at 2,000' AGL
  • Broken at 3,500' AGL

Mar-19@
11:00 UTC

Mar-19 @ 11:00 UTC

Mar-19@
15:00 UTC

Mar-19 @ 15:00 UTC

TEMPO 1911/1915 02017G27KT

Temporary

Temporary Changes expected for less than half the time period

Wind
  • 020° at 17 KTS
  • {Gusting to 27 KTS